sensor_id;sensor_type;location;lat;lon;timestamp;pressure;altitude;pressure_sealevel;temperature;humidity
76762;BME280;65705;51.032;13.790;2023-04-25T00:01:25;99498.16;;;11.35;60.34
76762;BME280;65705;51.032;13.790;2023-04-25T00:03:50;99498.97;;;11.35;60.66
76762;BME280;65705;51.032;13.790;2023-04-25T00:06:16;99490.28;;;11.35;60.12
76762;BME280;65705;51.032;13.790;2023-04-25T00:08:43;99498.53;;;11.32;60.23
76762;BME280;65705;51.032;13.790;2023-04-25T00:11:09;99491.56;;;11.39;59.72
76762;BME280;65705;51.032;13.790;2023-04-25T00:13:35;99491.09;;;11.35;60.28
76762;BME280;65705;51.032;13.790;2023-04-25T00:16:00;99482.94;;;11.30;60.25
76762;BME280;65705;51.032;13.790;2023-04-25T00:18:28;99488.84;;;11.32;60.06
76762;BME280;65705;51.032;13.790;2023-04-25T00:20:58;99488.19;;;11.30;60.35
76762;BME280;65705;51.032;13.790;2023-04-25T00:23:24;99491.97;;;11.28;60.53
76762;BME280;65705;51.032;13.790;2023-04-25T00:25:50;99490.38;;;11.27;60.56
76762;BME280;65705;51.032;13.790;2023-04-25T00:28:16;99488.00;;;11.32;60.64
76762;BME280;65705;51.032;13.790;2023-04-25T00:30:42;99501.06;;;11.25;60.84
76762;BME280;65705;51.032;13.790;2023-04-25T00:33:09;99497.88;;;11.30;60.83
76762;BME280;65705;51.032;13.790;2023-04-25T00:35:35;99497.25;;;11.42;60.41
76762;BME280;65705;51.032;13.790;2023-04-25T00:38:01;99495.06;;;11.31;60.58
76762;BME280;65705;51.032;13.790;2023-04-25T00:40:27;99499.84;;;11.28;60.83
76762;BME280;65705;51.032;13.790;2023-04-25T00:42:53;99489.28;;;11.36;60.52
76762;BME280;65705;51.032;13.790;2023-04-25T00:45:20;99490.00;;;11.30;60.54
76762;BME280;65705;51.032;13.790;2023-04-25T00:47:46;99491.88;;;11.21;60.71
76762;BME280;65705;51.032;13.790;2023-04-25T00:50:13;99491.25;;;11.19;60.67
76762;BME280;65705;51.032;13.790;2023-04-25T00:52:41;99496.88;;;11.16;60.44
76762;BME280;65705;51.032;13.790;2023-04-25T00:55:09;99491.66;;;11.08;60.75
76762;BME280;65705;51.032;13.790;2023-04-25T00:57:36;99491.47;;;10.95;60.90
76762;BME280;65705;51.032;13.790;2023-04-25T01:00:06;99487.28;;;11.01;60.69
76762;BME280;65705;51.032;13.790;2023-04-25T01:02:35;99482.94;;;10.93;61.11
76762;BME280;65705;51.032;13.790;2023-04-25T01:05:02;99489.00;;;10.94;60.76
76762;BME280;65705;51.032;13.790;2023-04-25T01:07:29;99483.41;;;10.97;60.79
76762;BME280;65705;51.032;13.790;2023-04-25T01:09:56;99486.91;;;10.89;60.75
76762;BME280;65705;51.032;13.790;2023-04-25T01:12:22;99490.88;;;10.85;61.04
76762;BME280;65705;51.032;13.790;2023-04-25T01:14:48;99478.09;;;10.82;61.17
76762;BME280;65705;51.032;13.790;2023-04-25T01:17:14;99487.28;;;10.86;60.81
76762;BME280;65705;51.032;13.790;2023-04-25T01:19:40;99481.56;;;10.83;60.76
76762;BME280;65705;51.032;13.790;2023-04-25T01:22:06;99486.31;;;10.79;61.11
76762;BME280;65705;51.032;13.790;2023-04-25T01:24:32;99482.75;;;10.72;60.78
76762;BME280;65705;51.032;13.790;2023-04-25T01:27:00;99485.75;;;10.69;60.76
76762;BME280;65705;51.032;13.790;2023-04-25T01:29:27;99489.88;;;10.63;60.87
76762;BME280;65705;51.032;13.790;2023-04-25T01:31:53;99482.72;;;10.57;60.87
76762;BME280;65705;51.032;13.790;2023-04-25T01:34:20;99485.16;;;10.59;60.36
76762;BME280;65705;51.032;13.790;2023-04-25T01:36:49;99483.28;;;10.45;60.93
76762;BME280;65705;51.032;13.790;2023-04-25T01:39:17;99491.00;;;10.38;61.31
76762;BME280;65705;51.032;13.790;2023-04-25T01:41:45;99487.41;;;10.39;60.86
76762;BME280;65705;51.032;13.790;2023-04-25T01:44:11;99483.50;;;10.35;61.06
76762;BME280;65705;51.032;13.790;2023-04-25T01:46:38;99480.06;;;10.35;60.78
76762;BME280;65705;51.032;13.790;2023-04-25T01:49:04;99480.41;;;10.32;60.78
76762;BME280;65705;51.032;13.790;2023-04-25T01:51:31;99476.94;;;10.31;60.45
76762;BME280;65705;51.032;13.790;2023-04-25T01:53:58;99475.66;;;10.27;60.24
76762;BME280;65705;51.032;13.790;2023-04-25T01:56:24;99476.00;;;10.24;60.48
76762;BME280;65705;51.032;13.790;2023-04-25T01:58:51;99482.09;;;10.25;60.42
76762;BME280;65705;51.032;13.790;2023-04-25T02:01:20;99484.53;;;10.26;60.17
76762;BME280;65705;51.032;13.790;2023-04-25T02:03:59;99485.69;;;10.24;60.34
76762;BME280;65705;51.032;13.790;2023-04-25T02:06:31;99482.25;;;10.23;60.00
76762;BME280;65705;51.032;13.790;2023-04-25T02:08:57;99485.38;;;10.19;60.41
76762;BME280;65705;51.032;13.790;2023-04-25T02:11:23;99488.00;;;10.19;60.33
76762;BME280;65705;51.032;13.790;2023-04-25T02:14:00;99481.94;;;10.18;60.14
76762;BME280;65705;51.032;13.790;2023-04-25T02:16:52;99483.75;;;10.18;60.47
76762;BME280;65705;51.032;13.790;2023-04-25T02:19:18;99483.94;;;10.16;60.18
76762;BME280;65705;51.032;13.790;2023-04-25T02:21:46;99486.69;;;10.15;60.49
76762;BME280;65705;51.032;13.790;2023-04-25T02:24:12;99483.94;;;10.16;60.61
76762;BME280;65705;51.032;13.790;2023-04-25T02:26:37;99482.09;;;10.17;60.44
76762;BME280;65705;51.032;13.790;2023-04-25T02:29:06;99477.88;;;10.16;60.44
76762;BME280;65705;51.032;13.790;2023-04-25T02:31:32;99478.03;;;10.14;60.58
76762;BME280;65705;51.032;13.790;2023-04-25T02:33:58;99479.47;;;10.17;60.56
76762;BME280;65705;51.032;13.790;2023-04-25T02:36:24;99478.84;;;10.15;60.63
76762;BME280;65705;51.032;13.790;2023-04-25T02:38:49;99474.41;;;10.15;60.50
76762;BME280;65705;51.032;13.790;2023-04-25T02:41:15;99476.88;;;10.17;60.49
76762;BME280;65705;51.032;13.790;2023-04-25T02:43:41;99470.97;;;10.15;60.49
76762;BME280;65705;51.032;13.790;2023-04-25T02:46:07;99479.19;;;10.12;60.75
76762;BME280;65705;51.032;13.790;2023-04-25T02:48:33;99477.84;;;10.08;60.68
76762;BME280;65705;51.032;13.790;2023-04-25T02:50:59;99481.31;;;10.08;61.04
76762;BME280;65705;51.032;13.790;2023-04-25T02:53:25;99479.84;;;10.06;61.22
76762;BME280;65705;51.032;13.790;2023-04-25T02:55:52;99481.19;;;10.02;61.06
76762;BME280;65705;51.032;13.790;2023-04-25T02:58:18;99474.47;;;9.99;61.24
76762;BME280;65705;51.032;13.790;2023-04-25T03:00:47;99476.13;;;9.92;61.48
76762;BME280;65705;51.032;13.790;2023-04-25T03:03:14;99479.75;;;9.91;61.75
76762;BME280;65705;51.032;13.790;2023-04-25T03:05:43;99482.53;;;9.90;61.57
76762;BME280;65705;51.032;13.790;2023-04-25T03:08:09;99478.28;;;9.89;61.62
76762;BME280;65705;51.032;13.790;2023-04-25T03:10:38;99481.72;;;9.89;61.90
76762;BME280;65705;51.032;13.790;2023-04-25T03:13:06;99475.00;;;9.87;61.65
76762;BME280;65705;51.032;13.790;2023-04-25T03:15:32;99477.31;;;9.82;61.71
76762;BME280;65705;51.032;13.790;2023-04-25T03:17:58;99470.78;;;9.78;61.68
76762;BME280;65705;51.032;13.790;2023-04-25T03:20:23;99478.81;;;9.68;62.01
76762;BME280;65705;51.032;13.790;2023-04-25T03:22:49;99474.44;;;9.61;62.31
76762;BME280;65705;51.032;13.790;2023-04-25T03:25:17;99474.94;;;9.56;62.82
76762;BME280;65705;51.032;13.790;2023-04-25T03:27:44;99476.09;;;9.53;62.91
76762;BME280;65705;51.032;13.790;2023-04-25T03:30:10;99473.16;;;9.48;62.91
76762;BME280;65705;51.032;13.790;2023-04-25T03:32:37;99473.34;;;9.39;63.33
76762;BME280;65705;51.032;13.790;2023-04-25T03:35:03;99475.50;;;9.35;63.58
76762;BME280;65705;51.032;13.790;2023-04-25T03:37:30;99478.59;;;9.31;63.58
76762;BME280;65705;51.032;13.790;2023-04-25T03:39:56;99471.72;;;9.22;63.73
76762;BME280;65705;51.032;13.790;2023-04-25T03:42:29;99480.75;;;9.19;63.92
76762;BME280;65705;51.032;13.790;2023-04-25T03:44:55;99470.28;;;9.19;64.14
76762;BME280;65705;51.032;13.790;2023-04-25T03:47:21;99472.06;;;9.19;64.19
76762;BME280;65705;51.032;13.790;2023-04-25T03:49:48;99469.28;;;9.20;64.25
76762;BME280;65705;51.032;13.790;2023-04-25T03:52:15;99469.94;;;9.14;64.14
76762;BME280;65705;51.032;13.790;2023-04-25T03:54:41;99472.56;;;9.14;64.36
76762;BME280;65705;51.032;13.790;2023-04-25T03:57:13;99470.28;;;9.11;64.83
76762;BME280;65705;51.032;13.790;2023-04-25T03:59:39;99479.63;;;8.98;64.84
76762;BME280;65705;51.032;13.790;2023-04-25T04:02:08;99468.66;;;8.94;64.79
76762;BME280;65705;51.032;13.790;2023-04-25T04:04:35;99479.63;;;8.98;64.76
76762;BME280;65705;51.032;13.790;2023-04-25T04:07:01;99480.44;;;9.06;64.28
76762;BME280;65705;51.032;13.790;2023-04-25T04:09:31;99480.59;;;9.05;64.64
76762;BME280;65705;51.032;13.790;2023-04-25T04:11:59;99479.44;;;9.07;64.66
76762;BME280;65705;51.032;13.790;2023-04-25T04:14:24;99483.88;;;9.07;64.62
76762;BME280;65705;51.032;13.790;2023-04-25T04:16:51;99484.00;;;9.13;64.59
76762;BME280;65705;51.032;13.790;2023-04-25T04:19:17;99487.78;;;9.11;64.92
76762;BME280;65705;51.032;13.790;2023-04-25T04:21:53;99480.88;;;9.18;64.27
76762;BME280;65705;51.032;13.790;2023-04-25T04:24:20;99475.34;;;9.21;64.21
76762;BME280;65705;51.032;13.790;2023-04-25T04:26:51;99479.59;;;9.30;63.98
76762;BME280;65705;51.032;13.790;2023-04-25T04:29:40;99478.75;;;9.29;64.03
76762;BME280;65705;51.032;13.790;2023-04-25T04:32:32;99480.56;;;9.37;63.67
76762;BME280;65705;51.032;13.790;2023-04-25T04:35:00;99480.69;;;9.43;63.68
76762;BME280;65705;51.032;13.790;2023-04-25T04:37:26;99482.19;;;9.46;63.15
76762;BME280;65705;51.032;13.790;2023-04-25T04:39:52;99496.72;;;9.48;63.12
76762;BME280;65705;51.032;13.790;2023-04-25T04:42:24;99499.34;;;9.48;62.82
76762;BME280;65705;51.032;13.790;2023-04-25T04:45:06;99509.81;;;9.56;62.33
76762;BME280;65705;51.032;13.790;2023-04-25T04:47:57;99501.13;;;9.56;62.34
76762;BME280;65705;51.032;13.790;2023-04-25T04:50:34;99502.78;;;9.57;62.19
76762;BME280;65705;51.032;13.790;2023-04-25T04:53:07;99501.44;;;9.69;62.10
76762;BME280;65705;51.032;13.790;2023-04-25T04:55:51;99496.63;;;9.81;63.11
76762;BME280;65705;51.032;13.790;2023-04-25T04:58:47;99498.72;;;9.93;62.22
76762;BME280;65705;51.032;13.790;2023-04-25T05:01:32;99501.44;;;10.08;60.30
76762;BME280;65705;51.032;13.790;2023-04-25T05:04:23;99497.75;;;9.94;60.59
76762;BME280;65705;51.032;13.790;2023-04-25T05:06:58;99500.38;;;9.94;60.57
76762;BME280;65705;51.032;13.790;2023-04-25T05:09:49;99507.72;;;9.99;60.32
76762;BME280;65705;51.032;13.790;2023-04-25T05:12:34;99509.69;;;9.97;60.12
76762;BME280;65705;51.032;13.790;2023-04-25T05:15:20;99507.88;;;9.97;60.31
76762;BME280;65705;51.032;13.790;2023-04-25T05:18:11;99510.66;;;10.04;59.82
76762;BME280;65705;51.032;13.790;2023-04-25T05:20:55;99510.34;;;9.99;60.18
76762;BME280;65705;51.032;13.790;2023-04-25T05:23:40;99509.84;;;9.95;60.08
76762;BME280;65705;51.032;13.790;2023-04-25T05:26:28;99512.56;;;9.71;60.54
76762;BME280;65705;51.032;13.790;2023-04-25T05:29:25;99508.28;;;9.70;60.89
76762;BME280;65705;51.032;13.790;2023-04-25T05:32:09;99509.75;;;9.81;60.87
76762;BME280;65705;51.032;13.790;2023-04-25T05:34:35;99509.13;;;9.79;59.90
76762;BME280;65705;51.032;13.790;2023-04-25T05:37:05;99502.34;;;9.92;60.10
76762;BME280;65705;51.032;13.790;2023-04-25T05:39:33;99506.88;;;10.06;59.63
76762;BME280;65705;51.032;13.790;2023-04-25T05:42:31;99505.28;;;9.97;59.48
76762;BME280;65705;51.032;13.790;2023-04-25T05:45:15;99519.91;;;9.84;57.89
76762;BME280;65705;51.032;13.790;2023-04-25T05:47:50;99507.47;;;9.78;58.38
76762;BME280;65705;51.032;13.790;2023-04-25T05:50:23;99503.06;;;9.78;57.63
76762;BME280;65705;51.032;13.790;2023-04-25T05:52:59;99511.41;;;9.74;57.10
76762;BME280;65705;51.032;13.790;2023-04-25T05:55:43;99513.53;;;9.70;57.31
76762;BME280;65705;51.032;13.790;2023-04-25T05:58:23;99520.25;;;9.73;57.38
76762;BME280;65705;51.032;13.790;2023-04-25T06:00:49;99529.75;;;9.74;57.18
76762;BME280;65705;51.032;13.790;2023-04-25T06:03:16;99520.91;;;9.67;57.50
76762;BME280;65705;51.032;13.790;2023-04-25T06:05:42;99511.75;;;9.79;57.37
76762;BME280;65705;51.032;13.790;2023-04-25T06:08:08;99512.69;;;9.86;57.34
76762;BME280;65705;51.032;13.790;2023-04-25T06:10:34;99523.19;;;9.86;57.17
76762;BME280;65705;51.032;13.790;2023-04-25T06:13:00;99519.38;;;9.96;57.07
76762;BME280;65705;51.032;13.790;2023-04-25T06:15:26;99513.78;;;9.99;56.77
76762;BME280;65705;51.032;13.790;2023-04-25T06:17:51;99515.94;;;9.96;56.84
76762;BME280;65705;51.032;13.790;2023-04-25T06:20:17;99511.00;;;10.01;56.50
76762;BME280;65705;51.032;13.790;2023-04-25T06:22:43;99528.38;;;9.94;56.71
76762;BME280;65705;51.032;13.790;2023-04-25T06:25:09;99523.97;;;9.86;56.44
76762;BME280;65705;51.032;13.790;2023-04-25T06:27:35;99514.69;;;9.76;56.52
76762;BME280;65705;51.032;13.790;2023-04-25T06:30:02;99516.75;;;9.88;56.92
76762;BME280;65705;51.032;13.790;2023-04-25T06:32:30;99517.22;;;10.00;56.67
76762;BME280;65705;51.032;13.790;2023-04-25T06:34:58;99523.94;;;10.10;55.82
76762;BME280;65705;51.032;13.790;2023-04-25T06:37:24;99523.13;;;9.94;55.92
76762;BME280;65705;51.032;13.790;2023-04-25T06:39:50;99523.19;;;9.86;56.77
76762;BME280;65705;51.032;13.790;2023-04-25T06:42:16;99523.50;;;9.83;56.63
76762;BME280;65705;51.032;13.790;2023-04-25T06:44:51;99521.22;;;9.80;56.95
76762;BME280;65705;51.032;13.790;2023-04-25T06:47:18;99523.50;;;9.91;57.09
76762;BME280;65705;51.032;13.790;2023-04-25T06:49:44;99513.91;;;10.06;56.05
76762;BME280;65705;51.032;13.790;2023-04-25T06:52:10;99514.63;;;10.00;55.95
76762;BME280;65705;51.032;13.790;2023-04-25T06:54:36;99523.94;;;10.10;55.59
76762;BME280;65705;51.032;13.790;2023-04-25T06:57:14;99520.50;;;10.10;55.75
76762;BME280;65705;51.032;13.790;2023-04-25T06:59:40;99518.34;;;10.13;55.73
76762;BME280;65705;51.032;13.790;2023-04-25T07:02:06;99526.31;;;10.28;55.33
76762;BME280;65705;51.032;13.790;2023-04-25T07:04:31;99523.63;;;9.97;55.27
76762;BME280;65705;51.032;13.790;2023-04-25T07:06:58;99517.19;;;10.08;55.22
76762;BME280;65705;51.032;13.790;2023-04-25T07:09:42;99530.81;;;10.03;55.82
76762;BME280;65705;51.032;13.790;2023-04-25T07:12:08;99523.41;;;10.15;55.52
76762;BME280;65705;51.032;13.790;2023-04-25T07:14:34;99525.38;;;10.21;55.06
76762;BME280;65705;51.032;13.790;2023-04-25T07:17:00;99528.81;;;10.21;55.47
76762;BME280;65705;51.032;13.790;2023-04-25T07:19:28;99526.63;;;10.33;54.70
76762;BME280;65705;51.032;13.790;2023-04-25T07:21:57;99525.25;;;10.45;54.33
76762;BME280;65705;51.032;13.790;2023-04-25T07:24:23;99531.22;;;10.61;53.89
76762;BME280;65705;51.032;13.790;2023-04-25T07:26:50;99532.88;;;10.63;53.31
76762;BME280;65705;51.032;13.790;2023-04-25T07:29:25;99521.50;;;10.70;53.11
76762;BME280;65705;51.032;13.790;2023-04-25T07:31:51;99531.19;;;10.92;52.29
76762;BME280;65705;51.032;13.790;2023-04-25T07:34:18;99538.19;;;11.00;52.43
76762;BME280;65705;51.032;13.790;2023-04-25T07:36:43;99531.72;;;10.88;51.76
76762;BME280;65705;51.032;13.790;2023-04-25T07:39:10;99524.47;;;11.12;51.41
76762;BME280;65705;51.032;13.790;2023-04-25T07:41:36;99531.09;;;11.23;51.33
76762;BME280;65705;51.032;13.790;2023-04-25T07:44:02;99531.66;;;11.33;51.34
76762;BME280;65705;51.032;13.790;2023-04-25T07:46:30;99524.28;;;11.36;50.78
76762;BME280;65705;51.032;13.790;2023-04-25T07:48:55;99514.31;;;11.46;51.41
76762;BME280;65705;51.032;13.790;2023-04-25T07:51:21;99528.34;;;11.39;50.57
76762;BME280;65705;51.032;13.790;2023-04-25T07:53:48;99534.19;;;11.49;50.28
76762;BME280;65705;51.032;13.790;2023-04-25T07:56:15;99533.34;;;11.48;49.70
76762;BME280;65705;51.032;13.790;2023-04-25T07:58:44;99521.66;;;11.51;49.42
76762;BME280;65705;51.032;13.790;2023-04-25T08:01:13;99513.03;;;11.42;49.59
76762;BME280;65705;51.032;13.790;2023-04-25T08:03:38;99536.13;;;11.32;49.99
76762;BME280;65705;51.032;13.790;2023-04-25T08:06:09;99540.81;;;11.00;50.91
76762;BME280;65705;51.032;13.790;2023-04-25T08:08:45;99538.25;;;11.14;51.10
76762;BME280;65705;51.032;13.790;2023-04-25T08:11:14;99550.38;;;11.15;50.87
76762;BME280;65705;51.032;13.790;2023-04-25T08:13:40;99539.25;;;11.28;51.14
76762;BME280;65705;51.032;13.790;2023-04-25T08:16:06;99542.84;;;11.49;50.49
76762;BME280;65705;51.032;13.790;2023-04-25T08:18:31;99544.97;;;11.54;49.20
76762;BME280;65705;51.032;13.790;2023-04-25T08:20:57;99537.94;;;11.69;49.73
76762;BME280;65705;51.032;13.790;2023-04-25T08:23:24;99544.28;;;11.89;50.04
76762;BME280;65705;51.032;13.790;2023-04-25T08:26:02;99533.25;;;11.94;49.22
76762;BME280;65705;51.032;13.790;2023-04-25T08:28:28;99534.94;;;12.01;49.55
76762;BME280;65705;51.032;13.790;2023-04-25T08:30:57;99551.28;;;12.11;48.96
76762;BME280;65705;51.032;13.790;2023-04-25T08:33:24;99545.91;;;12.19;48.09
76762;BME280;65705;51.032;13.790;2023-04-25T08:36:12;99548.28;;;12.14;48.25
76762;BME280;65705;51.032;13.790;2023-04-25T08:38:38;99550.00;;;12.22;48.44
76762;BME280;65705;51.032;13.790;2023-04-25T08:41:07;99546.38;;;12.23;49.13
76762;BME280;65705;51.032;13.790;2023-04-25T08:43:34;99553.53;;;12.14;49.29
76762;BME280;65705;51.032;13.790;2023-04-25T08:46:00;99554.91;;;11.96;49.90
76762;BME280;65705;51.032;13.790;2023-04-25T08:48:35;99576.00;;;11.73;50.63
76762;BME280;65705;51.032;13.790;2023-04-25T08:51:06;99575.31;;;11.56;51.64
76762;BME280;65705;51.032;13.790;2023-04-25T08:53:32;99578.63;;;11.36;51.37
76762;BME280;65705;51.032;13.790;2023-04-25T08:56:01;99565.41;;;11.44;51.66
76762;BME280;65705;51.032;13.790;2023-04-25T08:58:31;99578.91;;;11.41;51.99
76762;BME280;65705;51.032;13.790;2023-04-25T09:00:57;99579.63;;;11.49;52.10
76762;BME280;65705;51.032;13.790;2023-04-25T09:03:26;99583.16;;;11.64;51.47
76762;BME280;65705;51.032;13.790;2023-04-25T09:05:52;99585.91;;;11.86;51.18
76762;BME280;65705;51.032;13.790;2023-04-25T09:08:20;99583.75;;;11.89;51.13
76762;BME280;65705;51.032;13.790;2023-04-25T09:10:46;99575.91;;;11.67;51.63
76762;BME280;65705;51.032;13.790;2023-04-25T09:13:17;99580.91;;;11.76;51.28
76762;BME280;65705;51.032;13.790;2023-04-25T09:16:07;99587.69;;;11.71;50.86
76762;BME280;65705;51.032;13.790;2023-04-25T09:19:05;99585.28;;;11.84;50.72
76762;BME280;65705;51.032;13.790;2023-04-25T09:21:34;99586.56;;;11.88;50.83
76762;BME280;65705;51.032;13.790;2023-04-25T09:24:00;99599.16;;;11.78;51.53
76762;BME280;65705;51.032;13.790;2023-04-25T09:26:26;99602.59;;;11.93;51.53
76762;BME280;65705;51.032;13.790;2023-04-25T09:29:07;99604.97;;;11.88;51.20
76762;BME280;65705;51.032;13.790;2023-04-25T09:31:34;99602.94;;;11.75;51.47
76762;BME280;65705;51.032;13.790;2023-04-25T09:34:01;99602.84;;;11.83;51.56
76762;BME280;65705;51.032;13.790;2023-04-25T09:36:30;99616.75;;;11.92;51.36
76762;BME280;65705;51.032;13.790;2023-04-25T09:39:15;99616.97;;;11.68;51.08
76762;BME280;65705;51.032;13.790;2023-04-25T09:41:43;99618.63;;;11.69;50.51
76762;BME280;65705;51.032;13.790;2023-04-25T09:44:12;99621.22;;;11.46;51.56
76762;BME280;65705;51.032;13.790;2023-04-25T09:46:39;99626.59;;;11.30;52.25
76762;BME280;65705;51.032;13.790;2023-04-25T09:49:14;99628.09;;;11.02;54.00
76762;BME280;65705;51.032;13.790;2023-04-25T09:51:58;99636.50;;;10.97;53.45
76762;BME280;65705;51.032;13.790;2023-04-25T09:54:28;99645.56;;;10.87;53.99
76762;BME280;65705;51.032;13.790;2023-04-25T09:57:19;99649.81;;;10.57;55.08
76762;BME280;65705;51.032;13.790;2023-04-25T09:59:51;99638.53;;;10.48;55.98
76762;BME280;65705;51.032;13.790;2023-04-25T10:02:20;99640.34;;;10.48;56.40
76762;BME280;65705;51.032;13.790;2023-04-25T10:04:50;99638.97;;;10.68;55.81
76762;BME280;65705;51.032;13.790;2023-04-25T10:07:30;99638.97;;;10.68;55.34
76762;BME280;65705;51.032;13.790;2023-04-25T10:10:01;99635.13;;;11.09;54.45
76762;BME280;65705;51.032;13.790;2023-04-25T10:12:29;99641.81;;;11.12;54.74
76762;BME280;65705;51.032;13.790;2023-04-25T10:14:58;99641.31;;;11.39;54.26
76762;BME280;65705;51.032;13.790;2023-04-25T10:17:26;99646.06;;;11.43;53.23
76762;BME280;65705;51.032;13.790;2023-04-25T10:19:52;99643.47;;;11.58;53.54
76762;BME280;65705;51.032;13.790;2023-04-25T10:22:29;99651.66;;;11.86;52.91
76762;BME280;65705;51.032;13.790;2023-04-25T10:24:56;99643.34;;;11.97;52.00
76762;BME280;65705;51.032;13.790;2023-04-25T10:27:22;99654.59;;;12.05;51.60
76762;BME280;65705;51.032;13.790;2023-04-25T10:32:32;99657.28;;;11.83;51.67
76762;BME280;65705;51.032;13.790;2023-04-25T10:35:19;99654.50;;;11.99;51.76
76762;BME280;65705;51.032;13.790;2023-04-25T10:37:59;99655.69;;;12.11;51.76
76762;BME280;65705;51.032;13.790;2023-04-25T10:40:25;99653.50;;;12.14;52.38
76762;BME280;65705;51.032;13.790;2023-04-25T10:42:52;99650.66;;;12.01;52.36
76762;BME280;65705;51.032;13.790;2023-04-25T10:45:19;99661.38;;;12.00;52.07
76762;BME280;65705;51.032;13.790;2023-04-25T10:47:45;99656.31;;;11.53;52.23
76762;BME280;65705;51.032;13.790;2023-04-25T10:50:11;99657.38;;;11.44;52.42
76762;BME280;65705;51.032;13.790;2023-04-25T10:52:39;99662.22;;;11.32;53.21
76762;BME280;65705;51.032;13.790;2023-04-25T10:55:06;99664.00;;;11.40;52.76
76762;BME280;65705;51.032;13.790;2023-04-25T10:57:36;99661.22;;;11.33;53.34
76762;BME280;65705;51.032;13.790;2023-04-25T11:00:13;99661.84;;;10.82;54.84
76762;BME280;65705;51.032;13.790;2023-04-25T11:02:52;99669.63;;;10.68;55.66
76762;BME280;65705;51.032;13.790;2023-04-25T11:05:38;99667.06;;;10.51;56.13
76762;BME280;65705;51.032;13.790;2023-04-25T11:08:11;99692.50;;;10.43;57.06
76762;BME280;65705;51.032;13.790;2023-04-25T11:10:39;99673.22;;;10.12;58.64
76762;BME280;65705;51.032;13.790;2023-04-25T11:13:05;99678.44;;;10.28;58.69
76762;BME280;65705;51.032;13.790;2023-04-25T11:15:31;99683.63;;;10.44;58.45
76762;BME280;65705;51.032;13.790;2023-04-25T11:17:57;99686.09;;;10.45;58.75
76762;BME280;65705;51.032;13.790;2023-04-25T11:20:25;99683.47;;;10.53;58.46
76762;BME280;65705;51.032;13.790;2023-04-25T11:22:51;99694.03;;;10.21;58.63
76762;BME280;65705;51.032;13.790;2023-04-25T11:25:17;99697.31;;;10.15;59.14
76762;BME280;65705;51.032;13.790;2023-04-25T11:27:57;99700.41;;;10.27;59.70
76762;BME280;65705;51.032;13.790;2023-04-25T11:30:24;99699.94;;;10.23;60.83
76762;BME280;65705;51.032;13.790;2023-04-25T11:32:51;99741.06;;;10.15;60.91
76762;BME280;65705;51.032;13.790;2023-04-25T11:35:21;99731.38;;;9.91;61.95
76762;BME280;65705;51.032;13.790;2023-04-25T11:37:48;99723.34;;;10.01;61.44
76762;BME280;65705;51.032;13.790;2023-04-25T11:40:15;99727.44;;;10.35;60.17
76762;BME280;65705;51.032;13.790;2023-04-25T11:42:45;99729.38;;;10.57;58.71
76762;BME280;65705;51.032;13.790;2023-04-25T11:45:12;99727.09;;;10.46;58.04
76762;BME280;65705;51.032;13.790;2023-04-25T11:47:38;99721.03;;;10.38;56.85
76762;BME280;65705;51.032;13.790;2023-04-25T11:50:06;99733.81;;;10.41;56.08
76762;BME280;65705;51.032;13.790;2023-04-25T11:52:37;99722.16;;;10.43;57.24
76762;BME280;65705;51.032;13.790;2023-04-25T11:55:17;99728.22;;;10.44;57.03
76762;BME280;65705;51.032;13.790;2023-04-25T11:57:45;99727.47;;;10.82;57.27
76762;BME280;65705;51.032;13.790;2023-04-25T12:00:13;99723.00;;;10.99;56.84
76762;BME280;65705;51.032;13.790;2023-04-25T12:02:41;99727.53;;;11.13;55.05
76762;BME280;65705;51.032;13.790;2023-04-25T12:05:09;99737.16;;;10.82;54.84
76762;BME280;65705;51.032;13.790;2023-04-25T12:07:35;99735.78;;;10.94;55.07
76762;BME280;65705;51.032;13.790;2023-04-25T12:10:10;99742.09;;;11.15;53.87
76762;BME280;65705;51.032;13.790;2023-04-25T12:12:37;99721.63;;;11.11;53.36
76762;BME280;65705;51.032;13.790;2023-04-25T12:15:10;99739.53;;;11.07;53.30
76762;BME280;65705;51.032;13.790;2023-04-25T12:17:37;99744.78;;;10.99;54.04
76762;BME280;65705;51.032;13.790;2023-04-25T12:22:34;99741.50;;;10.58;55.47
76762;BME280;65705;51.032;13.790;2023-04-25T12:25:00;99746.69;;;10.67;55.27
76762;BME280;65705;51.032;13.790;2023-04-25T12:27:26;99732.81;;;10.50;55.81
76762;BME280;65705;51.032;13.790;2023-04-25T12:29:56;99724.03;;;10.82;55.70
76762;BME280;65705;51.032;13.790;2023-04-25T12:32:22;99727.41;;;10.98;54.88
76762;BME280;65705;51.032;13.790;2023-04-25T12:34:48;99728.97;;;11.15;53.81
76762;BME280;65705;51.032;13.790;2023-04-25T12:37:14;99728.78;;;11.47;52.32
76762;BME280;65705;51.032;13.790;2023-04-25T12:39:40;99728.22;;;11.60;51.94
76762;BME280;65705;51.032;13.790;2023-04-25T12:42:06;99730.28;;;11.73;50.70
76762;BME280;65705;51.032;13.790;2023-04-25T12:44:33;99731.75;;;11.98;49.42
76762;BME280;65705;51.032;13.790;2023-04-25T12:46:59;99724.16;;;12.03;48.88
76762;BME280;65705;51.032;13.790;2023-04-25T12:49:25;99742.84;;;11.62;49.33
76762;BME280;65705;51.032;13.790;2023-04-25T12:51:51;99741.06;;;11.55;50.18
76762;BME280;65705;51.032;13.790;2023-04-25T12:54:17;99742.00;;;11.39;49.65
76762;BME280;65705;51.032;13.790;2023-04-25T12:56:42;99745.78;;;11.37;49.89
76762;BME280;65705;51.032;13.790;2023-04-25T12:59:08;99739.22;;;11.33;50.64
76762;BME280;65705;51.032;13.790;2023-04-25T13:01:34;99744.25;;;11.42;50.23
76762;BME280;65705;51.032;13.790;2023-04-25T13:04:00;99763.47;;;11.43;50.33
76762;BME280;65705;51.032;13.790;2023-04-25T13:06:26;99751.66;;;11.47;49.90
76762;BME280;65705;51.032;13.790;2023-04-25T13:08:52;99755.59;;;11.12;50.57
76762;BME280;65705;51.032;13.790;2023-04-25T13:11:18;99743.38;;;11.27;50.61